createdAt,value
2018-02-03T00:00:12.933Z,59.96
2018-02-03T00:00:44.587Z,60.12
2018-02-03T00:01:16.281Z,60.21
2018-02-03T00:01:47.900Z,60.47
2018-02-03T00:02:19.531Z,60.18
2018-02-03T00:02:51.153Z,60.41
2018-02-03T00:03:22.822Z,60.23
2018-02-03T00:03:54.438Z,60.30
2018-02-03T00:04:26.067Z,60.37
2018-02-03T00:04:57.698Z,60.41
2018-02-03T00:05:29.321Z,60.66
2018-02-03T00:06:00.951Z,60.86
2018-02-03T00:06:32.641Z,60.71
2018-02-03T00:07:04.269Z,60.73
2018-02-03T00:07:35.890Z,60.84
2018-02-03T00:08:07.516Z,60.90
2018-02-03T00:08:39.137Z,61.04
2018-02-03T00:09:10.757Z,60.70
2018-02-03T00:09:42.401Z,60.94
2018-02-03T00:10:14.025Z,60.67
2018-02-03T00:10:45.653Z,60.61
2018-02-03T00:11:17.281Z,61.12
2018-02-03T00:11:48.970Z,60.95
2018-02-03T00:12:20.594Z,61.12
2018-02-03T00:12:52.221Z,60.88
2018-02-03T00:13:23.846Z,61.14
2018-02-03T00:13:55.479Z,61.38
2018-02-03T00:14:27.109Z,61.22
2018-02-03T00:14:58.733Z,61.50
2018-02-03T00:15:30.367Z,61.36
2018-02-03T00:16:01.998Z,61.34
2018-02-03T00:16:33.626Z,61.42
2018-02-03T00:17:05.262Z,60.97
2018-02-03T00:17:36.885Z,61.66
2018-02-03T00:18:08.510Z,61.33
2018-02-03T00:18:40.138Z,61.43
2018-02-03T00:19:11.761Z,61.43
2018-02-03T00:19:43.385Z,61.30
2018-02-03T00:20:15.010Z,61.30
2018-02-03T00:20:46.639Z,61.15
2018-02-03T00:21:18.262Z,61.04
2018-02-03T00:21:49.885Z,61.09
2018-02-03T00:22:21.570Z,61.21
2018-02-03T00:22:53.405Z,61.36
2018-02-03T00:23:25.050Z,61.58
2018-02-03T00:23:56.674Z,61.50
2018-02-03T00:24:28.334Z,61.81
2018-02-03T00:24:59.962Z,61.95
2018-02-03T00:25:31.590Z,61.53
2018-02-03T00:26:03.209Z,61.64
2018-02-03T00:26:34.833Z,61.73
2018-02-03T00:27:06.457Z,61.37
2018-02-03T00:27:38.149Z,61.38
2018-02-03T00:28:09.773Z,61.47
2018-02-03T00:28:41.405Z,62.04
2018-02-03T00:29:13.033Z,61.59
2018-02-03T00:29:44.662Z,61.60
2018-02-03T00:30:16.286Z,61.49
2018-02-03T00:30:47.914Z,61.55
2018-02-03T00:31:19.538Z,61.83
2018-02-03T00:31:51.169Z,61.96
2018-02-03T00:32:22.801Z,61.75
2018-02-03T00:32:54.487Z,61.68
2018-02-03T00:33:26.113Z,62.19
2018-02-03T00:33:57.745Z,61.74
2018-02-03T00:34:29.366Z,61.72
2018-02-03T00:35:00.994Z,61.95
2018-02-03T00:35:32.710Z,61.71
2018-02-03T00:36:04.333Z,61.67
2018-02-03T00:36:35.966Z,61.76
2018-02-03T00:37:07.593Z,61.87
2018-02-03T00:37:39.222Z,61.85
2018-02-03T00:38:10.905Z,61.69
2018-02-03T00:38:42.525Z,61.96
2018-02-03T00:39:14.156Z,62.06
2018-02-03T00:39:45.788Z,61.98
2018-02-03T00:40:17.410Z,61.76
2018-02-03T00:40:49.033Z,61.82
2018-02-03T00:41:20.657Z,61.79
2018-02-03T00:41:52.285Z,62.01
2018-02-03T00:42:23.913Z,62.04
2018-02-03T00:42:55.541Z,62.15
2018-02-03T00:43:27.226Z,61.82
2018-02-03T00:43:58.854Z,61.98
2018-02-03T00:44:30.482Z,62.17
2018-02-03T00:45:02.106Z,62.23
2018-02-03T00:45:33.733Z,62.40
2018-02-03T00:46:05.362Z,62.42
2018-02-03T00:46:36.985Z,62.37
2018-02-03T00:47:08.614Z,62.31
2018-02-03T00:47:40.242Z,61.80
2018-02-03T00:48:11.870Z,61.86
2018-02-03T00:48:43.558Z,62.16
2018-02-03T00:49:15.186Z,62.31
2018-02-03T00:49:46.805Z,62.37
2018-02-03T00:50:18.434Z,62.41
2018-02-03T00:50:50.057Z,62.77
2018-02-03T00:51:21.690Z,62.52
2018-02-03T00:51:53.313Z,62.37
2018-02-03T00:52:24.938Z,62.32
2018-02-03T00:52:56.567Z,62.63
2018-02-03T00:53:28.191Z,62.77
2018-02-03T00:53:59.826Z,62.15
2018-02-03T00:54:31.458Z,62.68
2018-02-03T00:55:03.085Z,62.40
2018-02-03T00:55:34.710Z,62.37
2018-02-03T00:56:06.334Z,62.50
2018-02-03T00:56:37.961Z,62.57
2018-02-03T00:57:09.585Z,62.30
2018-02-03T00:57:41.214Z,62.26
2018-02-03T00:58:12.842Z,62.02
2018-02-03T00:58:44.465Z,62.15
2018-02-03T00:59:16.154Z,62.32
2018-02-03T00:59:47.778Z,62.19
2018-02-03T01:00:19.410Z,62.10
2018-02-03T01:00:51.037Z,62.46
2018-02-03T01:01:22.662Z,62.62
2018-02-03T01:01:54.290Z,62.55
2018-02-03T01:02:25.913Z,62.65
2018-02-03T01:02:57.538Z,62.63
2018-02-03T01:03:29.166Z,62.43
2018-02-03T01:04:00.789Z,62.40
2018-02-03T01:04:32.475Z,62.21
2018-02-03T01:05:04.097Z,62.35
2018-02-03T01:05:35.726Z,62.32
2018-02-03T01:06:07.356Z,62.02
2018-02-03T01:06:38.982Z,62.10
2018-02-03T01:07:10.609Z,62.04
2018-02-03T01:07:42.228Z,62.04
2018-02-03T01:08:13.858Z,61.96
2018-02-03T01:08:45.486Z,61.84
2018-02-03T01:09:17.113Z,61.77
2018-02-03T01:09:48.797Z,61.80
2018-02-03T01:10:20.426Z,61.85
2018-02-03T01:10:52.050Z,61.90
2018-02-03T01:11:23.677Z,61.86
2018-02-03T01:11:55.306Z,61.68
2018-02-03T01:12:26.932Z,61.79
2018-02-03T01:12:58.695Z,61.60
2018-02-03T01:13:30.317Z,61.79
2018-02-03T01:14:01.937Z,61.64
2018-02-03T01:14:33.557Z,61.77
2018-02-03T01:15:05.246Z,61.68
2018-02-03T01:15:36.871Z,61.50
2018-02-03T01:16:08.494Z,61.41
2018-02-03T01:16:40.118Z,61.55
2018-02-03T01:17:11.745Z,61.60
2018-02-03T01:17:43.374Z,61.44
2018-02-03T01:18:15.003Z,61.35
2018-02-03T01:18:46.637Z,61.59
2018-02-03T01:19:18.262Z,61.47
2018-02-03T01:19:49.890Z,61.44
2018-02-03T01:20:21.573Z,61.44
2018-02-03T01:20:53.202Z,61.47
2018-02-03T01:21:24.830Z,61.43
2018-02-03T01:21:56.513Z,61.25
2018-02-03T01:22:28.137Z,61.26
2018-02-03T01:22:59.766Z,61.27
2018-02-03T01:23:31.390Z,61.32
2018-02-03T01:24:03.015Z,61.40
2018-02-03T01:24:34.654Z,61.34
2018-02-03T01:25:06.278Z,61.33
2018-02-03T01:25:37.966Z,61.47
2018-02-03T01:26:09.588Z,61.37
2018-02-03T01:26:41.210Z,61.43
2018-02-03T01:27:12.837Z,61.33
2018-02-03T01:27:44.466Z,61.31
2018-02-03T01:28:16.089Z,61.41
2018-02-03T01:28:47.714Z,61.39
2018-02-03T01:29:19.342Z,61.41
2018-02-03T01:29:50.965Z,61.43
2018-02-03T01:30:22.594Z,61.34
2018-02-03T01:30:54.221Z,61.33
2018-02-03T01:31:25.842Z,61.43
2018-02-03T01:31:57.469Z,61.34
2018-02-03T01:32:29.089Z,61.42
2018-02-03T01:33:00.713Z,61.42
2018-02-03T01:33:32.346Z,61.45
2018-02-03T01:34:03.974Z,61.33
2018-02-03T01:34:35.601Z,61.37
2018-02-03T01:35:07.230Z,61.44
2018-02-03T01:35:38.855Z,61.58
2018-02-03T01:36:10.534Z,61.35
2018-02-03T01:36:42.157Z,61.30
2018-02-03T01:37:13.787Z,61.22
2018-02-03T01:37:45.410Z,61.44
2018-02-03T01:38:17.038Z,61.31
2018-02-03T01:38:48.661Z,61.38
2018-02-03T01:39:20.285Z,61.43
2018-02-03T01:39:51.913Z,61.38
2018-02-03T01:40:23.545Z,61.45
2018-02-03T01:40:55.174Z,61.35
2018-02-03T01:41:26.886Z,61.57
2018-02-03T01:41:58.529Z,61.40
2018-02-03T01:42:30.148Z,61.46
2018-02-03T01:43:01.773Z,61.55
2018-02-03T01:43:33.405Z,61.42
2018-02-03T01:44:05.041Z,61.48
2018-02-03T01:44:36.669Z,61.49
2018-02-03T01:45:08.295Z,61.45
2018-02-03T01:45:39.917Z,61.45
2018-02-03T01:46:11.622Z,61.43
2018-02-03T01:46:43.304Z,61.43
2018-02-03T01:47:14.935Z,61.55
2018-02-03T01:47:46.557Z,61.54
2018-02-03T01:48:18.181Z,61.34
2018-02-03T01:48:49.818Z,61.47
2018-02-03T01:49:21.450Z,61.30
2018-02-03T01:49:53.077Z,61.25
2018-02-03T01:50:24.765Z,61.36
2018-02-03T01:50:56.393Z,61.33
2018-02-03T01:51:28.022Z,61.22
2018-02-03T01:51:59.714Z,61.39
2018-02-03T01:52:31.342Z,61.27
2018-02-03T01:53:02.969Z,61.30
2018-02-03T01:53:34.597Z,61.38
2018-02-03T01:54:06.226Z,61.46
2018-02-03T01:54:37.913Z,61.25
2018-02-03T01:55:09.537Z,61.28
2018-02-03T01:55:41.166Z,61.39
2018-02-03T01:56:12.798Z,61.24
2018-02-03T01:56:44.421Z,61.39
2018-02-03T01:57:16.106Z,61.22
2018-02-03T01:57:47.734Z,61.25
2018-02-03T01:58:19.362Z,61.16
2018-02-03T01:58:50.990Z,61.15
2018-02-03T01:59:22.613Z,61.26
2018-02-03T01:59:54.233Z,61.08
2018-02-03T02:00:25.882Z,61.12
2018-02-03T02:00:57.517Z,61.03
2018-02-03T02:01:29.142Z,60.99
2018-02-03T02:02:00.774Z,61.24
2018-02-03T02:02:32.458Z,61.09
2018-02-03T02:03:04.081Z,61.29
2018-02-03T02:03:35.710Z,61.22
2018-02-03T02:04:07.333Z,61.21
2018-02-03T02:04:38.964Z,61.32
2018-02-03T02:05:10.618Z,61.33
2018-02-03T02:05:42.241Z,61.43
2018-02-03T02:06:13.866Z,61.29
2018-02-03T02:06:45.493Z,61.43
2018-02-03T02:07:17.113Z,61.47
2018-02-03T02:07:48.733Z,61.22
2018-02-03T02:08:20.353Z,61.30
2018-02-03T02:08:51.976Z,61.31
2018-02-03T02:09:23.598Z,61.17
2018-02-03T02:09:55.222Z,61.36
2018-02-03T02:10:26.846Z,61.25
2018-02-03T02:10:58.477Z,61.46
2018-02-03T02:11:30.101Z,61.59
2018-02-03T02:12:01.722Z,61.62
2018-02-03T02:12:33.345Z,61.94
2018-02-03T02:13:05.025Z,61.88
2018-02-03T02:13:36.653Z,61.82
2018-02-03T02:14:08.277Z,61.86
2018-02-03T02:14:39.908Z,61.99
2018-02-03T02:15:11.566Z,62.28
2018-02-03T02:15:43.194Z,62.03
2018-02-03T02:16:14.824Z,62.29
2018-02-03T02:16:46.445Z,62.66
2018-02-03T02:17:18.073Z,62.43
2018-02-03T02:17:49.702Z,62.63
2018-02-03T02:18:21.386Z,62.41
2018-02-03T02:18:53.009Z,62.46
2018-02-03T02:19:24.641Z,62.57
2018-02-03T02:19:56.265Z,62.48
2018-02-03T02:20:27.889Z,62.65
2018-02-03T02:20:59.513Z,62.78
2018-02-03T02:21:31.140Z,62.73
2018-02-03T02:22:02.772Z,62.98
2018-02-03T02:22:34.398Z,63.05
2018-02-03T02:23:06.017Z,62.92
2018-02-03T02:23:37.709Z,62.73
2018-02-03T02:24:09.341Z,62.93
2018-02-03T02:24:40.965Z,62.84
2018-02-03T02:25:12.593Z,63.05
2018-02-03T02:25:44.225Z,63.38
2018-02-03T02:26:15.849Z,63.00
2018-02-03T02:26:47.469Z,62.97
2018-02-03T02:27:19.096Z,62.90
2018-02-03T02:27:50.717Z,63.13
2018-02-03T02:28:22.346Z,63.11
2018-02-03T02:28:54.028Z,63.59
2018-02-03T02:29:25.682Z,63.48
2018-02-03T02:29:57.338Z,63.35
2018-02-03T02:30:28.962Z,63.50
2018-02-03T02:31:00.586Z,63.28
2018-02-03T02:31:32.214Z,63.24
2018-02-03T02:32:03.838Z,63.43
2018-02-03T02:32:35.466Z,63.83
2018-02-03T02:33:07.089Z,63.34
2018-02-03T02:33:38.718Z,63.26
2018-02-03T02:34:10.401Z,63.36
2018-02-03T02:34:42.030Z,63.42
2018-02-03T02:35:13.664Z,63.47
2018-02-03T02:35:45.293Z,63.45
2018-02-03T02:36:16.926Z,63.65
2018-02-03T02:36:48.554Z,63.96
2018-02-03T02:37:20.185Z,63.82
2018-02-03T02:37:51.814Z,63.94
2018-02-03T02:38:23.437Z,63.58
2018-02-03T02:38:55.066Z,63.53
2018-02-03T02:39:26.761Z,63.44
2018-02-03T02:39:58.386Z,63.73
2018-02-03T02:40:30.016Z,63.65
2018-02-03T02:41:01.650Z,63.71
2018-02-03T02:41:33.274Z,63.79
2018-02-03T02:42:04.898Z,63.85
2018-02-03T02:42:36.521Z,64.61
2018-02-03T02:43:08.146Z,64.08
2018-02-03T02:43:39.812Z,64.34
2018-02-03T02:44:11.434Z,64.48
2018-02-03T02:44:43.057Z,64.87
2018-02-03T02:45:14.681Z,64.80
2018-02-03T02:45:46.306Z,64.83
2018-02-03T02:46:17.930Z,65.02
2018-02-03T02:46:49.556Z,64.71
2018-02-03T02:47:21.177Z,64.95
2018-02-03T02:47:52.806Z,65.00
2018-02-03T02:48:24.429Z,64.56
2018-02-03T02:48:56.059Z,64.65
2018-02-03T02:49:27.690Z,64.69
2018-02-03T02:49:59.377Z,64.85
2018-02-03T02:50:31.013Z,64.94
2018-02-03T02:51:02.655Z,64.81
2018-02-03T02:51:34.302Z,64.89
2018-02-03T02:52:05.950Z,64.80
2018-02-03T02:52:37.591Z,64.81
2018-02-03T02:53:09.213Z,64.94
2018-02-03T02:53:40.845Z,64.73
2018-02-03T02:54:12.477Z,64.78
2018-02-03T02:54:44.115Z,64.83
2018-02-03T02:55:15.797Z,64.82
2018-02-03T02:55:47.426Z,64.73
2018-02-03T02:56:19.050Z,64.36
2018-02-03T02:56:50.674Z,64.69
2018-02-03T02:57:22.306Z,64.88
2018-02-03T02:57:53.935Z,64.78
2018-02-03T02:58:25.562Z,64.54
2018-02-03T02:58:57.185Z,64.61
2018-02-03T02:59:28.815Z,64.67
2018-02-03T03:00:00.441Z,64.55
2018-02-03T03:00:32.133Z,64.75
2018-02-03T03:01:03.758Z,64.64
2018-02-03T03:01:35.389Z,64.67
2018-02-03T03:02:07.017Z,64.88
2018-02-03T03:02:38.641Z,64.43
2018-02-03T03:03:10.262Z,64.54
2018-02-03T03:03:41.881Z,64.69
2018-02-03T03:04:13.502Z,64.74
2018-02-03T03:04:45.130Z,64.54
2018-02-03T03:05:16.753Z,65.13
2018-02-03T03:05:48.446Z,65.04
2018-02-03T03:06:20.071Z,64.88
2018-02-03T03:06:51.701Z,64.97
2018-02-03T03:07:23.329Z,64.75
2018-02-03T03:07:54.949Z,65.00
2018-02-03T03:08:26.578Z,66.02
2018-02-03T03:08:58.214Z,65.05
2018-02-03T03:09:29.841Z,64.96
2018-02-03T03:10:01.471Z,65.13
2018-02-03T03:10:33.099Z,65.09
2018-02-03T03:11:04.789Z,64.82
2018-02-03T03:11:36.417Z,64.98
2018-02-03T03:12:08.041Z,64.35
2018-02-03T03:12:39.666Z,64.33
2018-02-03T03:13:11.298Z,64.25
2018-02-03T03:13:42.921Z,64.24
2018-02-03T03:14:14.557Z,64.05
2018-02-03T03:14:46.194Z,64.08
2018-02-03T03:15:17.821Z,64.00
2018-02-03T03:15:49.447Z,63.94
2018-02-03T03:16:21.134Z,63.86
2018-02-03T03:16:52.765Z,63.90
2018-02-03T03:17:24.394Z,63.88
2018-02-03T03:17:56.017Z,64.10
2018-02-03T03:18:27.646Z,64.17
2018-02-03T03:18:59.269Z,64.04
2018-02-03T03:19:30.898Z,63.97
2018-02-03T03:20:02.521Z,63.93
2018-02-03T03:20:34.146Z,64.05
2018-02-03T03:21:05.770Z,64.08
2018-02-03T03:21:37.389Z,63.96
2018-02-03T03:22:09.013Z,63.88
2018-02-03T03:22:40.641Z,63.80
2018-02-03T03:23:12.274Z,63.94
2018-02-03T03:23:43.901Z,63.94
2018-02-03T03:24:15.530Z,63.77
2018-02-03T03:24:47.153Z,63.91
2018-02-03T03:25:18.786Z,63.99
2018-02-03T03:25:50.409Z,64.00
2018-02-03T03:26:22.038Z,64.13
2018-02-03T03:26:53.729Z,63.97
2018-02-03T03:27:25.353Z,63.66
2018-02-03T03:27:56.981Z,63.87
2018-02-03T03:28:28.610Z,63.84
2018-02-03T03:29:00.233Z,63.79
2018-02-03T03:29:31.861Z,63.70
2018-02-03T03:30:03.495Z,64.01
2018-02-03T03:30:35.127Z,63.86
2018-02-03T03:31:06.756Z,63.79
2018-02-03T03:31:38.387Z,63.76
2018-02-03T03:32:10.082Z,63.72
2018-02-03T03:32:41.705Z,63.79
2018-02-03T03:33:13.330Z,63.63
2018-02-03T03:33:44.953Z,63.53
2018-02-03T03:34:16.581Z,63.53
2018-02-03T03:34:48.205Z,63.84
2018-02-03T03:35:19.828Z,63.67
2018-02-03T03:35:51.459Z,63.64
2018-02-03T03:36:23.085Z,63.81
2018-02-03T03:36:54.713Z,63.84
2018-02-03T03:37:26.398Z,63.65
2018-02-03T03:37:58.022Z,63.59
2018-02-03T03:38:29.645Z,63.91
2018-02-03T03:39:01.265Z,63.77
2018-02-03T03:39:32.893Z,63.52
2018-02-03T03:40:04.518Z,63.28
2018-02-03T03:40:36.146Z,63.49
2018-02-03T03:41:07.777Z,63.49
2018-02-03T03:41:39.397Z,63.32
2018-02-03T03:42:11.021Z,63.68
2018-02-03T03:42:42.704Z,63.93
2018-02-03T03:43:14.325Z,63.74
2018-02-03T03:43:45.950Z,63.75
2018-02-03T03:44:17.578Z,63.50
2018-02-03T03:44:49.206Z,63.66
2018-02-03T03:45:20.882Z,63.75
2018-02-03T03:45:52.497Z,63.52
2018-02-03T03:46:24.124Z,63.65
2018-02-03T03:46:55.758Z,63.66
2018-02-03T03:47:27.385Z,63.62
2018-02-03T03:47:59.073Z,63.54
2018-02-03T03:48:30.693Z,63.65
2018-02-03T03:49:02.317Z,63.62
2018-02-03T03:49:33.946Z,63.43
2018-02-03T03:50:05.574Z,63.44
2018-02-03T03:50:37.201Z,63.52
2018-02-03T03:51:08.826Z,63.65
2018-02-03T03:51:40.454Z,63.29
2018-02-03T03:52:12.081Z,63.27
2018-02-03T03:52:43.704Z,63.30
2018-02-03T03:53:15.397Z,63.29
2018-02-03T03:53:47.026Z,63.22
2018-02-03T03:54:18.650Z,63.25
2018-02-03T03:54:50.273Z,63.24
2018-02-03T03:55:21.930Z,63.10
2018-02-03T03:55:53.562Z,63.26
2018-02-03T03:56:25.185Z,63.27
2018-02-03T03:56:56.818Z,63.24
2018-02-03T03:57:28.450Z,63.47
2018-02-03T03:58:00.078Z,63.49
2018-02-03T03:58:31.701Z,63.45
2018-02-03T03:59:03.330Z,63.44
2018-02-03T03:59:34.954Z,63.44
2018-02-03T04:00:06.581Z,63.31
2018-02-03T04:00:38.386Z,63.29
2018-02-03T04:01:10.018Z,63.19
2018-02-03T04:01:41.647Z,63.23
2018-02-03T04:02:13.274Z,63.30
2018-02-03T04:02:44.901Z,63.19
2018-02-03T04:03:16.534Z,63.06
2018-02-03T04:03:48.217Z,63.20
2018-02-03T04:04:19.842Z,63.07
2018-02-03T04:04:51.469Z,62.95
2018-02-03T04:05:23.094Z,62.97
2018-02-03T04:05:54.721Z,63.06
2018-02-03T04:06:26.354Z,63.08
2018-02-03T04:06:57.977Z,62.89
2018-02-03T04:07:29.630Z,62.96
2018-02-03T04:08:01.273Z,62.83
2018-02-03T04:08:32.954Z,62.99
2018-02-03T04:09:04.650Z,62.76
2018-02-03T04:09:36.281Z,62.92
2018-02-03T04:10:07.906Z,62.88
2018-02-03T04:10:39.529Z,62.93
2018-02-03T04:11:11.153Z,63.04
2018-02-03T04:11:42.777Z,62.87
2018-02-03T04:12:14.397Z,62.93
2018-02-03T04:12:46.030Z,62.93
2018-02-03T04:13:17.658Z,62.93
2018-02-03T04:13:49.281Z,62.92
2018-02-03T04:14:20.970Z,62.86
2018-02-03T04:14:52.593Z,62.81
2018-02-03T04:15:24.220Z,62.77
2018-02-03T04:15:55.872Z,62.87
2018-02-03T04:16:27.509Z,62.74
2018-02-03T04:16:59.137Z,62.86
2018-02-03T04:17:30.757Z,62.96
2018-02-03T04:18:02.382Z,62.71
2018-02-03T04:18:34.039Z,62.75
2018-02-03T04:19:05.686Z,62.72
2018-02-03T04:19:37.374Z,62.82
2018-02-03T04:20:08.997Z,62.82
2018-02-03T04:20:40.623Z,62.92
2018-02-03T04:21:12.254Z,62.74
2018-02-03T04:21:43.877Z,62.65
2018-02-03T04:22:15.506Z,62.58
2018-02-03T04:22:47.129Z,62.66
2018-02-03T04:23:18.757Z,62.66
2018-02-03T04:23:50.381Z,62.71
2018-02-03T04:24:22.005Z,62.66
2018-02-03T04:24:53.688Z,62.57
2018-02-03T04:25:25.318Z,62.60
2018-02-03T04:25:56.944Z,62.65
2018-02-03T04:26:28.598Z,62.73
2018-02-03T04:27:00.231Z,62.83
2018-02-03T04:27:31.858Z,62.65
2018-02-03T04:28:03.482Z,62.65
2018-02-03T04:28:35.120Z,62.79
2018-02-03T04:29:06.753Z,62.68
2018-02-03T04:29:38.378Z,62.59
2018-02-03T04:30:10.085Z,62.70
2018-02-03T04:30:41.741Z,62.69
2018-02-03T04:31:13.366Z,62.68
2018-02-03T04:31:44.989Z,62.75
2018-02-03T04:32:16.618Z,62.82
2018-02-03T04:32:48.248Z,62.61
2018-02-03T04:33:19.882Z,62.77
2018-02-03T04:33:51.506Z,62.72
2018-02-03T04:34:23.134Z,62.89
2018-02-03T04:34:54.763Z,62.81
2018-02-03T04:35:26.386Z,62.79
2018-02-03T04:35:58.013Z,62.52
2018-02-03T04:36:29.641Z,62.68
2018-02-03T04:37:01.270Z,62.67
2018-02-03T04:37:32.902Z,62.81
2018-02-03T04:38:04.525Z,62.90
2018-02-03T04:38:36.149Z,62.70
2018-02-03T04:39:07.782Z,62.60
2018-02-03T04:39:39.406Z,62.53
2018-02-03T04:40:11.025Z,62.72
2018-02-03T04:40:42.725Z,62.75
2018-02-03T04:41:14.349Z,62.65
2018-02-03T04:41:45.977Z,62.73
2018-02-03T04:42:17.617Z,62.79
2018-02-03T04:42:49.241Z,62.67
2018-02-03T04:43:20.861Z,62.70
2018-02-03T04:43:52.490Z,62.73
2018-02-03T04:44:24.126Z,62.71
2018-02-03T04:44:55.762Z,62.71
2018-02-03T04:45:27.386Z,62.74
2018-02-03T04:45:59.072Z,62.67
2018-02-03T04:46:30.703Z,62.63
2018-02-03T04:47:02.325Z,62.70
2018-02-03T04:47:33.954Z,62.53
2018-02-03T04:48:05.577Z,62.60
2018-02-03T04:48:37.200Z,62.51
2018-02-03T04:49:08.821Z,62.59
2018-02-03T04:49:40.445Z,62.66
2018-02-03T04:50:12.086Z,62.56
2018-02-03T04:50:43.713Z,62.56
2018-02-03T04:51:15.402Z,62.55
2018-02-03T04:51:47.033Z,62.64
2018-02-03T04:52:18.659Z,62.55
2018-02-03T04:52:50.281Z,62.56
2018-02-03T04:53:21.910Z,62.61
2018-02-03T04:53:53.538Z,62.47
2018-02-03T04:54:25.160Z,62.59
2018-02-03T04:54:56.790Z,62.74
2018-02-03T04:55:28.413Z,62.62
2018-02-03T04:56:00.042Z,62.68
2018-02-03T04:56:31.735Z,62.71
2018-02-03T04:57:03.362Z,62.96
2018-02-03T04:57:34.992Z,62.99
2018-02-03T04:58:06.626Z,62.90
2018-02-03T04:58:38.254Z,62.94
2018-02-03T04:59:09.882Z,62.69
2018-02-03T04:59:41.509Z,62.71
2018-02-03T05:00:13.139Z,62.90
2018-02-03T05:00:44.774Z,62.94
2018-02-03T05:01:16.426Z,62.72
2018-02-03T05:01:48.109Z,62.79
2018-02-03T05:02:19.730Z,63.08
2018-02-03T05:02:51.361Z,62.90
2018-02-03T05:03:22.981Z,63.00
2018-02-03T05:03:54.609Z,62.87
2018-02-03T05:04:26.234Z,62.75
2018-02-03T05:04:57.861Z,62.68
2018-02-03T05:05:29.489Z,62.72
2018-02-03T05:06:01.118Z,62.98
2018-02-03T05:06:32.753Z,63.12
2018-02-03T05:07:04.438Z,63.30
2018-02-03T05:07:36.062Z,63.01
2018-02-03T05:08:07.681Z,63.47
2018-02-03T05:08:39.310Z,63.16
2018-02-03T05:09:10.938Z,63.14
2018-02-03T05:09:42.561Z,63.30
2018-02-03T05:10:14.189Z,63.14
2018-02-03T05:10:45.814Z,63.17
2018-02-03T05:11:17.442Z,63.37
2018-02-03T05:11:49.065Z,63.43
2018-02-03T05:12:20.686Z,63.42
2018-02-03T05:12:52.309Z,63.31
2018-02-03T05:13:23.933Z,63.36
2018-02-03T05:13:55.585Z,63.39
2018-02-03T05:14:27.214Z,63.38
2018-02-03T05:14:58.838Z,63.52
2018-02-03T05:15:30.466Z,63.47
2018-02-03T05:16:02.093Z,63.40
2018-02-03T05:16:33.721Z,63.45
2018-02-03T05:17:05.350Z,63.44
2018-02-03T05:17:37.046Z,63.50
2018-02-03T05:18:08.674Z,63.22
2018-02-03T05:18:40.306Z,63.58
2018-02-03T05:19:11.954Z,63.41
2018-02-03T05:19:43.582Z,63.51
2018-02-03T05:20:15.206Z,63.50
2018-02-03T05:20:46.829Z,63.32
2018-02-03T05:21:18.453Z,63.59
2018-02-03T05:21:50.082Z,63.51
2018-02-03T05:22:21.705Z,63.80
2018-02-03T05:22:53.389Z,63.71
2018-02-03T05:23:25.017Z,63.98
2018-02-03T05:23:56.645Z,63.58
2018-02-03T05:24:28.274Z,63.43
2018-02-03T05:24:59.894Z,63.67
2018-02-03T05:25:31.522Z,63.66
2018-02-03T05:26:03.150Z,63.54
2018-02-03T05:26:34.774Z,63.65
2018-02-03T05:27:06.397Z,63.67
2018-02-03T05:27:38.055Z,63.88
2018-02-03T05:28:09.749Z,64.16
2018-02-03T05:28:41.374Z,64.08
2018-02-03T05:29:13.002Z,63.99
2018-02-03T05:29:44.625Z,63.91
2018-02-03T05:30:16.258Z,63.86
2018-02-03T05:30:47.881Z,63.84
2018-02-03T05:31:19.510Z,63.77
2018-02-03T05:31:51.130Z,64.00
2018-02-03T05:32:22.754Z,63.65
2018-02-03T05:32:54.382Z,63.77
2018-02-03T05:33:26.123Z,63.65
2018-02-03T05:33:57.725Z,63.70
2018-02-03T05:34:29.369Z,63.52
2018-02-03T05:35:01.025Z,63.55
2018-02-03T05:35:32.649Z,63.51
2018-02-03T05:36:04.278Z,63.60
2018-02-03T05:36:35.916Z,63.57
2018-02-03T05:37:07.541Z,63.54
2018-02-03T05:37:39.198Z,63.45
2018-02-03T05:38:10.851Z,63.36
2018-02-03T05:38:43.270Z,63.56
2018-02-03T05:39:14.917Z,63.34
2018-02-03T05:39:46.569Z,63.31
2018-02-03T05:40:18.214Z,63.38
2018-02-03T05:40:49.862Z,63.44
2018-02-03T05:41:21.485Z,63.41
2018-02-03T05:41:53.109Z,63.43
2018-02-03T05:42:24.733Z,63.24
2018-02-03T05:42:56.369Z,63.24
2018-02-03T05:43:28.018Z,63.23
2018-02-03T05:43:59.726Z,63.20
2018-02-03T05:44:32.165Z,63.28
2018-02-03T05:45:03.813Z,63.41
2018-02-03T05:45:35.453Z,63.23
2018-02-03T05:46:07.097Z,63.18
2018-02-03T05:46:38.737Z,63.39
2018-02-03T05:47:10.390Z,63.28
2018-02-03T05:47:42.034Z,63.32
2018-02-03T05:48:13.681Z,63.17
2018-02-03T05:48:45.334Z,63.27
2018-02-03T05:49:16.981Z,63.29
2018-02-03T05:49:48.602Z,63.20
2018-02-03T05:50:20.257Z,63.41
2018-02-03T05:50:51.878Z,63.24
2018-02-03T05:51:23.501Z,63.20
2018-02-03T05:51:55.122Z,63.11
2018-02-03T05:52:26.745Z,63.20
2018-02-03T05:52:58.365Z,63.25
2018-02-03T05:53:29.985Z,63.10
2018-02-03T05:54:01.609Z,63.12
2018-02-03T05:54:33.307Z,63.18
2018-02-03T05:55:04.929Z,63.17
2018-02-03T05:55:36.573Z,63.17
2018-02-03T05:56:08.229Z,63.10
2018-02-03T05:56:39.858Z,63.25
2018-02-03T05:57:11.481Z,63.00
2018-02-03T05:57:43.106Z,63.27
2018-02-03T05:58:14.733Z,62.92
2018-02-03T05:58:46.362Z,62.97
2018-02-03T05:59:17.998Z,62.92
2018-02-03T05:59:49.677Z,62.98
2018-02-03T06:00:21.306Z,63.07
2018-02-03T06:00:52.934Z,62.99
2018-02-03T06:01:24.562Z,62.91
2018-02-03T06:01:56.181Z,62.95
2018-02-03T06:02:27.801Z,63.01
2018-02-03T06:02:59.429Z,63.06
2018-02-03T06:03:31.053Z,62.87
2018-02-03T06:04:02.673Z,62.81
2018-02-03T06:04:34.302Z,62.77
2018-02-03T06:05:05.993Z,62.83
2018-02-03T06:05:37.623Z,62.96
2018-02-03T06:06:09.250Z,63.00
2018-02-03T06:06:40.878Z,62.90
2018-02-03T06:07:12.506Z,63.00
2018-02-03T06:07:44.129Z,62.99
2018-02-03T06:08:15.757Z,62.92
2018-02-03T06:08:47.386Z,62.81
2018-02-03T06:09:19.009Z,62.94
2018-02-03T06:09:50.633Z,62.90
2018-02-03T06:10:22.322Z,62.96
2018-02-03T06:10:53.949Z,62.98
2018-02-03T06:11:25.573Z,62.92
2018-02-03T06:11:57.193Z,62.96
2018-02-03T06:12:28.821Z,62.83
2018-02-03T06:13:00.455Z,62.95
2018-02-03T06:13:32.077Z,62.87
2018-02-03T06:14:03.705Z,62.86
2018-02-03T06:14:35.334Z,62.85
2018-02-03T06:15:06.957Z,62.75
2018-02-03T06:15:38.642Z,62.69
2018-02-03T06:16:10.262Z,62.74
2018-02-03T06:16:41.882Z,62.70
2018-02-03T06:17:13.509Z,62.61
2018-02-03T06:17:45.137Z,62.70
2018-02-03T06:18:16.762Z,62.71
2018-02-03T06:18:48.381Z,62.67
2018-02-03T06:19:20.006Z,62.61
2018-02-03T06:19:51.638Z,62.57
2018-02-03T06:20:23.261Z,62.58
2018-02-03T06:20:54.941Z,62.54
2018-02-03T06:21:26.582Z,62.52
2018-02-03T06:21:58.209Z,62.55
2018-02-03T06:22:29.838Z,62.64
2018-02-03T06:23:01.466Z,62.72
2018-02-03T06:23:33.089Z,62.65
2018-02-03T06:24:04.714Z,62.68
2018-02-03T06:24:36.338Z,62.57
2018-02-03T06:25:07.961Z,62.57
2018-02-03T06:25:39.590Z,62.71
2018-02-03T06:26:11.214Z,62.67
2018-02-03T06:26:42.842Z,62.63
2018-02-03T06:27:14.474Z,62.53
2018-02-03T06:27:46.101Z,62.56
2018-02-03T06:28:17.733Z,62.61
2018-02-03T06:28:49.366Z,62.71
2018-02-03T06:29:20.989Z,62.62
2018-02-03T06:29:52.612Z,62.51
2018-02-03T06:30:24.234Z,62.66
2018-02-03T06:30:55.860Z,62.68
2018-02-03T06:31:27.549Z,62.59
2018-02-03T06:31:59.180Z,62.67
2018-02-03T06:32:30.810Z,62.81
2018-02-03T06:33:02.433Z,62.72
2018-02-03T06:33:34.058Z,62.73
2018-02-03T06:34:05.681Z,62.90
2018-02-03T06:34:37.310Z,62.69
2018-02-03T06:35:08.938Z,62.77
2018-02-03T06:35:40.565Z,62.62
2018-02-03T06:36:12.189Z,62.61
2018-02-03T06:36:43.878Z,62.64
2018-02-03T06:37:15.502Z,62.80
2018-02-03T06:37:47.130Z,62.73
2018-02-03T06:38:18.798Z,62.78
2018-02-03T06:38:50.405Z,62.71
2018-02-03T06:39:22.062Z,62.62
2018-02-03T06:39:53.686Z,62.51
2018-02-03T06:40:25.314Z,62.65
2018-02-03T06:40:56.937Z,63.04
2018-02-03T06:41:28.561Z,62.71
2018-02-03T06:42:00.254Z,62.79
2018-02-03T06:42:31.877Z,63.06
2018-02-03T06:43:03.501Z,62.98
2018-02-03T06:43:35.131Z,62.86
2018-02-03T06:44:06.762Z,63.16
2018-02-03T06:44:38.386Z,63.06
2018-02-03T06:45:10.025Z,62.82
2018-02-03T06:45:41.649Z,63.02
2018-02-03T06:46:13.278Z,62.96
2018-02-03T06:46:44.921Z,62.96
2018-02-03T06:47:16.610Z,63.01